Time;durP1;ratioP1;P1;durP2;ratioP2;P2;SDS_P1;SDS_P2;PMS_P1;PMS_P2;Temp;Humidity;BMP_temperature;BMP_pressure;BME280_temperature;BME280_humidity;BME280_pressure;Samples;Min_cycle;Max_cycle;Signal;HPM_P1;HPM_P2
2023/01/13 00:01:13;;;;;;;8.27;3.40;;;;;;;17.37;60.79;100245.34;5041297;28;20472;-80
2023/01/13 00:03:39;;;;;;;8.38;3.08;;;;;;;17.37;60.71;100240.16;5058575;28;20016;-78
2023/01/13 00:06:05;;;;;;;10.93;3.83;;;;;;;17.37;60.63;100232.34;5041119;28;20028;-81
2023/01/13 00:08:31;;;;;;;9.23;3.78;;;;;;;17.38;60.67;100235.84;5041336;28;20119;-79
2023/01/13 00:10:57;;;;;;;8.23;3.17;;;;;;;17.37;60.70;100221.94;5075893;28;20090;-78
2023/01/13 00:13:25;;;;;;;9.00;3.58;;;;;;;17.36;60.68;100209.84;5025083;28;20495;-81
2023/01/13 00:16:10;;;;;;;8.90;3.53;;;;;;;17.37;60.47;100210.69;5027633;28;20028;-80
2023/01/13 00:18:36;;;;;;;8.73;3.45;;;;;;;17.37;60.70;100215.91;5059650;28;20111;-80
2023/01/13 00:21:03;;;;;;;9.38;3.50;;;;;;;17.37;60.63;100208.94;5061069;28;20032;-78
2023/01/13 00:23:30;;;;;;;8.38;3.47;;;;;;;17.36;60.66;100209.00;5058913;28;20024;-80
2023/01/13 00:25:57;;;;;;;11.45;3.72;;;;;;;17.36;60.71;100209.84;5058231;28;20059;-82
2023/01/13 00:28:22;;;;;;;9.25;3.40;;;;;;;17.36;60.44;100209.84;5057470;28;20028;-80
2023/01/13 00:30:48;;;;;;;8.48;3.83;;;;;;;17.36;60.78;100202.03;5057350;28;20032;-79
2023/01/13 00:33:13;;;;;;;7.00;3.08;;;;;;;17.35;60.54;100205.50;5040868;28;20025;-81
2023/01/13 00:35:39;;;;;;;8.32;3.45;;;;;;;17.35;60.39;100202.91;5057389;28;20024;-81
2023/01/13 00:38:04;;;;;;;8.63;3.70;;;;;;;17.35;60.53;100189.91;5057051;28;20131;-82
2023/01/13 00:40:30;;;;;;;7.90;3.25;;;;;;;17.35;60.56;100192.50;5024231;28;20021;-79
2023/01/13 00:45:39;;;;;;;10.15;3.38;;;;;;;17.34;60.55;100201.22;5046920;28;20083;-80
2023/01/13 00:48:05;;;;;;;9.35;3.38;;;;;;;17.34;60.30;100198.59;5040755;28;20029;-79
2023/01/13 00:50:31;;;;;;;10.02;3.33;;;;;;;17.35;60.89;100194.25;5040716;28;20029;-80
2023/01/13 00:52:59;;;;;;;8.30;3.25;;;;;;;17.34;60.43;100184.75;5040412;28;20399;-79
2023/01/13 00:55:24;;;;;;;10.30;3.40;;;;;;;17.33;60.52;100175.22;5040111;28;20028;-79
2023/01/13 00:57:50;;;;;;;9.52;3.58;;;;;;;17.33;60.44;100177.81;5040146;28;20059;-80
2023/01/13 01:00:16;;;;;;;9.40;3.72;;;;;;;17.33;60.38;100177.81;5056628;28;20051;-82
2023/01/13 01:02:41;;;;;;;10.07;3.60;;;;;;;17.32;60.56;100176.13;5040003;28;20379;-79
2023/01/13 01:05:07;;;;;;;7.80;3.28;;;;;;;17.32;60.46;100186.53;5056690;28;20103;-81
2023/01/13 01:07:32;;;;;;;7.68;3.05;;;;;;;17.32;60.44;100187.38;5023753;28;20040;-79
2023/01/13 01:09:58;;;;;;;10.57;3.58;;;;;;;17.32;60.19;100192.56;5023704;28;20421;-80
2023/01/13 01:12:23;;;;;;;8.07;3.38;;;;;;;17.31;60.42;100190.88;5056580;28;20052;-83
2023/01/13 01:14:48;;;;;;;8.85;3.53;;;;;;;17.31;60.16;100196.06;5023685;28;20386;-79
2023/01/13 01:17:14;;;;;;;9.38;3.47;;;;;;;17.31;60.20;100200.41;5039863;28;20075;-81
2023/01/13 01:19:39;;;;;;;7.68;3.30;;;;;;;17.30;60.49;100199.56;5023408;28;20031;-78
2023/01/13 01:22:05;;;;;;;9.95;3.85;;;;;;;17.31;60.18;100195.19;5023634;28;20035;-79
2023/01/13 01:24:30;;;;;;;10.27;3.35;;;;;;;17.30;60.37;100188.28;5040083;28;20494;-81
2023/01/13 01:26:56;;;;;;;9.50;3.40;;;;;;;17.30;60.17;100183.09;5039879;28;20490;-80
2023/01/13 01:29:21;;;;;;;8.80;3.60;;;;;;;17.30;60.22;100183.09;5023186;28;20123;-82
2023/01/13 01:31:46;;;;;;;9.10;3.38;;;;;;;17.30;60.29;100190.91;5039530;28;20028;-82
2023/01/13 01:34:12;;;;;;;8.57;3.40;;;;;;;17.29;60.05;100190.03;5039610;28;20405;-80
2023/01/13 01:36:38;;;;;;;9.75;3.58;;;;;;;17.30;59.99;100180.50;5039591;28;20476;-80
2023/01/13 01:39:04;;;;;;;8.32;3.42;;;;;;;17.29;59.99;100174.44;5073836;28;20032;-80
2023/01/13 01:41:31;;;;;;;10.43;3.53;;;;;;;17.28;60.22;100170.09;5039630;28;20029;-80
2023/01/13 01:44:01;;;;;;;9.30;3.45;;;;;;;17.28;60.07;100170.97;5056109;28;20082;-79
2023/01/13 01:46:29;;;;;;;7.90;3.10;;;;;;;17.29;59.94;100177.03;5056012;28;20028;-82
2023/01/13 01:49:04;;;;;;;8.13;3.45;;;;;;;17.28;59.78;100175.31;5055856;28;20035;-81
2023/01/13 01:51:35;;;;;;;8.77;3.38;;;;;;;17.27;60.23;100177.06;5055983;28;20032;-83
2023/01/13 01:54:05;;;;;;;7.43;3.15;;;;;;;17.28;59.78;100183.13;5055885;28;20021;-80
2023/01/13 01:56:32;;;;;;;11.38;3.97;;;;;;;17.27;59.93;100182.25;5056012;28;20102;-81
2023/01/13 01:58:58;;;;;;;9.20;3.70;;;;;;;17.27;59.83;100177.06;5039259;28;20029;-81
2023/01/13 02:01:23;;;;;;;9.77;3.67;;;;;;;17.26;59.70;100177.94;5073695;28;20484;-81
2023/01/13 02:04:00;;;;;;;8.30;3.30;;;;;;;17.26;59.79;100169.28;5022869;28;20081;-80
2023/01/13 02:06:28;;;;;;;10.07;3.53;;;;;;;17.27;59.94;100173.63;5055680;28;20115;-80
2023/01/13 02:08:54;;;;;;;11.13;3.83;;;;;;;17.27;59.84;100176.22;5039986;28;20024;-82
2023/01/13 02:14:21;;;;;;;8.95;3.42;;;;;;;17.26;59.75;100153.69;5073545;28;20593;-78
2023/01/13 02:16:56;;;;;;;9.35;3.58;;;;;;;17.25;59.71;100167.59;5055880;28;20029;-80
2023/01/13 02:19:40;;;;;;;9.93;3.53;;;;;;;17.25;59.75;100160.63;5055545;28;20029;-80
2023/01/13 02:22:21;;;;;;;8.43;3.25;;;;;;;17.25;60.04;100147.63;5073611;28;20489;-80
2023/01/13 02:25:11;;;;;;;12.38;3.30;;;;;;;17.24;59.58;100156.28;5055643;28;20058;-80
2023/01/13 02:27:48;;;;;;;8.10;3.35;;;;;;;17.24;59.80;100148.50;5055738;28;20077;-81
2023/01/13 02:34:05;;;;;;;7.72;3.05;;;;;;;17.23;59.53;100152.00;5073529;28;20078;-81
2023/01/13 02:36:41;;;;;;;8.07;3.17;;;;;;;17.23;59.71;100144.19;5055166;28;20036;-79
2023/01/13 02:39:21;;;;;;;9.80;3.78;;;;;;;17.22;59.80;100144.22;5055392;28;20028;-82
2023/01/13 02:45:07;;;;;;;9.77;3.15;;;;;;;17.22;59.70;100152.03;5073512;28;20108;-79
2023/01/13 02:47:37;;;;;;;9.63;3.83;;;;;;;17.22;59.65;100144.22;5055380;28;20028;-80
2023/01/13 02:50:09;;;;;;;7.43;3.17;;;;;;;17.21;59.46;100150.31;5055696;28;20043;-78
2023/01/13 02:52:39;;;;;;;10.33;3.60;;;;;;;17.21;59.42;100150.31;5057217;28;20059;-79
2023/01/13 02:55:16;;;;;;;10.38;3.60;;;;;;;17.21;59.60;100156.38;5073951;28;20058;-80
2023/01/13 02:57:44;;;;;;;8.55;3.17;;;;;;;17.21;59.35;100150.31;5056154;28;20044;-79
2023/01/13 03:00:12;;;;;;;7.45;3.20;;;;;;;17.20;59.36;100146.00;5055494;28;20020;-79
2023/01/13 03:02:37;;;;;;;8.88;3.45;;;;;;;17.20;59.43;100140.78;5055388;28;20028;-81
2023/01/13 03:05:04;;;;;;;8.18;3.00;;;;;;;17.20;59.44;100139.06;5055344;28;20028;-80
2023/01/13 03:07:48;;;;;;;8.68;3.60;;;;;;;17.19;59.51;100139.94;5055282;28;20051;-82
2023/01/13 03:10:38;;;;;;;9.48;3.47;;;;;;;17.19;59.64;100141.69;5055125;28;20017;-80
2023/01/13 03:13:25;;;;;;;9.23;3.53;;;;;;;17.18;59.48;100127.84;5055053;28;20382;-82
2023/01/13 03:16:09;;;;;;;9.50;3.28;;;;;;;17.19;59.56;100124.34;5055144;28;20497;-79
2023/01/13 03:18:45;;;;;;;10.25;3.25;;;;;;;17.19;59.35;100123.50;5055124;28;20052;-80
2023/01/13 03:21:19;;;;;;;8.80;2.95;;;;;;;17.18;59.86;100113.97;5054989;28;20029;-79
2023/01/13 03:24:01;;;;;;;9.65;3.42;;;;;;;17.17;59.41;100100.09;5075645;28;20024;-80
2023/01/13 03:26:39;;;;;;;8.55;3.17;;;;;;;17.17;59.42;100105.31;5058606;28;20031;-79
2023/01/13 03:29:16;;;;;;;9.25;3.03;;;;;;;17.18;59.53;100108.75;5058455;28;20183;-79
2023/01/13 03:31:52;;;;;;;9.25;3.13;;;;;;;17.17;59.55;100105.31;5058509;28;20542;-79
2023/01/13 03:34:23;;;;;;;9.82;3.30;;;;;;;17.16;59.19;100106.22;5076381;28;20038;-79
2023/01/13 03:36:54;;;;;;;9.07;3.50;;;;;;;17.16;59.51;100108.81;5058862;28;20032;-79
2023/01/13 03:39:28;;;;;;;9.55;3.08;;;;;;;17.17;59.39;100107.06;5058562;28;20528;-82
2023/01/13 03:41:59;;;;;;;8.48;3.10;;;;;;;17.16;59.19;100107.94;5076322;28;20029;-82
2023/01/13 03:44:31;;;;;;;10.77;2.90;;;;;;;17.16;59.51;100118.31;5058363;28;20016;-81
2023/01/13 03:47:25;;;;;;;7.60;2.88;;;;;;;17.15;59.41;100114.88;5058373;28;20421;-80
2023/01/13 03:50:05;;;;;;;11.30;3.17;;;;;;;17.15;59.34;100101.03;5058103;28;20020;-80
2023/01/13 03:52:39;;;;;;;10.77;3.25;;;;;;;17.15;59.25;100101.03;5058084;28;20052;-79
2023/01/13 03:55:17;;;;;;;8.52;3.28;;;;;;;17.15;59.33;100103.63;5058214;28;20021;-79
2023/01/13 03:57:58;;;;;;;8.27;3.25;;;;;;;17.15;59.31;100111.44;5054612;28;20049;-79
2023/01/13 04:00:29;;;;;;;8.55;2.88;;;;;;;17.13;59.17;100108.84;5054693;28;20033;-80
2023/01/13 04:03:01;;;;;;;8.88;3.30;;;;;;;17.14;59.24;100114.94;5054653;28;20017;-81
2023/01/13 04:05:27;;;;;;;10.48;2.95;;;;;;;17.14;59.23;100114.94;5054699;28;20013;-82
2023/01/13 04:08:07;;;;;;;8.82;3.10;;;;;;;17.13;59.54;100129.66;5038008;28;20044;-79
2023/01/13 04:10:49;;;;;;;7.72;2.97;;;;;;;17.13;59.23;100128.81;5054535;28;20033;-81
2023/01/13 04:13:19;;;;;;;7.70;2.97;;;;;;;17.14;59.33;100125.34;5054588;28;20075;-80
2023/01/13 04:15:47;;;;;;;7.60;2.95;;;;;;;17.12;59.15;100122.75;5054396;28;20365;-80
2023/01/13 04:18:22;;;;;;;9.40;2.90;;;;;;;17.13;59.16;100118.41;5054305;28;20490;-81
2023/01/13 04:20:49;;;;;;;8.82;3.22;;;;;;;17.12;59.10;100117.56;5054306;28;20021;-81
2023/01/13 04:23:16;;;;;;;7.78;3.20;;;;;;;17.12;59.34;100127.09;5054170;28;20432;-81
2023/01/13 04:25:43;;;;;;;7.72;3.17;;;;;;;17.11;59.05;100121.03;5054095;28;20025;-80
2023/01/13 04:28:09;;;;;;;8.63;3.00;;;;;;;17.11;59.38;100109.78;5038129;28;20502;-82
2023/01/13 04:30:35;;;;;;;7.03;2.88;;;;;;;17.12;59.01;100145.31;5037595;28;20031;-82
2023/01/13 04:33:02;;;;;;;9.45;2.67;;;;;;;17.11;58.89;100131.41;5053933;28;20033;-82
2023/01/13 04:35:28;;;;;;;7.50;3.08;;;;;;;17.12;58.96;100121.91;5053326;28;20032;-82
2023/01/13 04:37:53;;;;;;;7.97;3.38;;;;;;;17.11;59.08;100118.41;5054075;28;20021;-81
2023/01/13 04:40:19;;;;;;;7.72;3.38;;;;;;;17.11;59.17;100115.81;5020722;28;20029;-79
2023/01/13 04:42:44;;;;;;;6.38;2.72;;;;;;;17.11;58.97;100133.16;5037118;28;20112;-81
2023/01/13 04:45:10;;;;;;;6.50;2.80;;;;;;;17.11;59.01;100122.78;5037029;28;20115;-82
2023/01/13 04:47:36;;;;;;;8.35;2.72;;;;;;;17.11;59.11;100125.38;5037185;28;20382;-82
2023/01/13 04:50:02;;;;;;;8.77;3.13;;;;;;;17.10;58.80;100134.91;5055111;28;20059;-80
2023/01/13 04:52:27;;;;;;;7.15;2.85;;;;;;;17.10;58.95;100121.06;5020704;28;20033;-81
2023/01/13 04:54:53;;;;;;;10.50;3.10;;;;;;;17.10;59.01;100126.28;5020394;28;20033;-81
2023/01/13 04:57:18;;;;;;;8.32;2.80;;;;;;;17.10;59.14;100126.28;5014444;28;20049;-80
2023/01/13 04:59:43;;;;;;;6.80;2.80;;;;;;;17.09;59.03;100116.75;5017286;28;20037;-82
2023/01/13 05:02:10;;;;;;;6.38;2.55;;;;;;;17.09;58.95;100132.34;5017316;28;20404;-80
2023/01/13 05:04:35;;;;;;;8.73;3.10;;;;;;;17.08;58.90;100118.50;5001122;28;20065;-81
2023/01/13 05:07:01;;;;;;;8.75;2.72;;;;;;;17.08;58.92;100121.09;5033618;28;20087;-81
2023/01/13 05:09:26;;;;;;;6.63;2.72;;;;;;;17.10;58.89;100121.06;5016737;28;20108;-83
2023/01/13 05:17:21;;;;;;;;;;;;;;;17.12;58.74;100121.91;5034214;28;20076;-82
2023/01/13 05:19:47;;;;;;;8.20;2.67;;;;;;;17.13;59.03;100113.19;5033262;28;19967;-80
2023/01/13 05:27:40;;;;;;;5.60;2.50;;;;;;;17.13;58.70;100114.06;5033804;28;20012;-79
2023/01/13 05:30:06;;;;;;;7.15;2.60;;;;;;;17.14;58.98;100117.53;5016612;28;20112;-79
2023/01/13 05:32:32;;;;;;;6.60;2.70;;;;;;;17.14;58.73;100117.53;5000170;28;20040;-79
2023/01/13 05:34:57;;;;;;;7.35;2.75;;;;;;;17.15;58.84;100127.03;5033070;28;20468;-82
2023/01/13 05:37:23;;;;;;;6.28;2.20;;;;;;;17.15;58.80;100119.22;5001271;28;20038;-82
2023/01/13 05:45:16;;;;;;;6.30;2.60;;;;;;;17.17;58.49;100125.25;5035991;28;19920;-80
2023/01/13 05:47:42;;;;;;;5.28;2.50;;;;;;;17.16;58.71;100134.81;5032643;28;20030;-80
2023/01/13 05:50:08;;;;;;;6.53;2.75;;;;;;;17.16;58.81;100140.00;5016515;28;20060;-79
2023/01/13 05:52:34;;;;;;;6.25;2.15;;;;;;;17.17;58.73;100122.66;5032507;28;20415;-79
2023/01/13 05:54:59;;;;;;;7.68;2.42;;;;;;;17.16;58.64;100129.59;4999923;28;20029;-80
2023/01/13 05:57:25;;;;;;;7.30;2.45;;;;;;;17.17;58.69;100117.47;5022603;28;20048;-80
2023/01/13 05:59:50;;;;;;;6.32;2.38;;;;;;;17.17;58.58;100131.31;5019469;28;20036;-81
2023/01/13 06:02:15;;;;;;;5.32;2.42;;;;;;;17.17;58.66;100133.06;5035899;28;20039;-82
2023/01/13 06:04:41;;;;;;;5.45;2.08;;;;;;;17.17;58.72;100131.31;5019286;28;20029;-80
2023/01/13 06:07:06;;;;;;;6.50;2.33;;;;;;;17.19;58.72;100126.94;5019285;28;20040;-81
2023/01/13 06:09:31;;;;;;;6.72;2.45;;;;;;;17.19;58.61;100133.88;5052415;28;20060;-79
2023/01/13 06:11:57;;;;;;;5.70;2.50;;;;;;;17.19;58.57;100134.75;5035763;28;20040;-79
2023/01/13 06:14:22;;;;;;;5.65;2.22;;;;;;;17.20;58.68;100143.38;5035579;28;20040;-81
2023/01/13 06:16:48;;;;;;;7.35;2.47;;;;;;;17.21;58.64;100139.91;5019684;28;20448;-80
2023/01/13 06:19:13;;;;;;;7.15;2.50;;;;;;;17.24;58.50;100132.91;5035817;28;20021;-80
2023/01/13 06:21:39;;;;;;;9.63;2.55;;;;;;;17.26;58.72;100138.06;5035692;28;20036;-81
2023/01/13 06:24:05;;;;;;;5.35;2.28;;;;;;;17.27;58.71;100137.22;5053659;28;20460;-78
2023/01/13 06:26:36;;;;;;;5.82;2.25;;;;;;;17.27;58.72;100152.81;5035918;28;20028;-81
2023/01/13 06:29:02;;;;;;;9.10;2.30;;;;;;;17.28;58.95;100151.91;5052267;28;20057;-78
2023/01/13 06:31:29;;;;;;;7.50;2.38;;;;;;;17.28;58.87;100149.31;5052194;28;20024;-80
2023/01/13 06:34:01;;;;;;;6.80;2.20;;;;;;;17.27;58.85;100161.47;5052062;28;20120;-86
2023/01/13 06:36:33;;;;;;;28.05;7.93;;;;;;;17.28;58.77;100157.97;5051852;28;20116;-82
2023/01/13 06:39:01;;;;;;;84.35;27.05;;;;;;;17.31;58.70;100166.59;5052016;28;20021;-82
2023/01/13 06:44:13;;;;;;;43.20;15.88;;;;;;;17.33;59.03;100163.06;5053892;28;20036;-85
2023/01/13 06:46:39;;;;;;;37.58;13.32;;;;;;;17.35;59.09;100156.09;5036028;28;20025;-80
2023/01/13 06:49:05;;;;;;;32.88;12.25;;;;;;;17.38;58.88;100157.81;5020690;28;20064;-83
2023/01/13 06:51:31;;;;;;;31.33;10.75;;;;;;;17.39;58.66;100168.16;5036004;28;20028;-85
2023/01/13 06:53:56;;;;;;;37.47;13.07;;;;;;;17.36;59.10;100164.78;5019289;28;20029;-78
2023/01/13 06:56:22;;;;;;;48.60;17.08;;;;;;;17.42;59.18;100155.13;5035626;28;20218;-81
2023/01/13 06:58:47;;;;;;;50.30;16.65;;;;;;;17.40;58.88;100161.25;5021839;28;20056;-83
2023/01/13 07:01:12;;;;;;;43.38;15.48;;;;;;;17.34;58.93;100164.81;5022842;28;20119;-78
2023/01/13 07:03:39;;;;;;;39.92;12.27;;;;;;;17.32;58.81;100176.97;5056270;28;20044;-79
2023/01/13 07:06:05;;;;;;;31.15;12.05;;;;;;;17.32;58.74;100174.38;5039215;28;20029;-78
2023/01/13 07:08:30;;;;;;;33.22;11.90;;;;;;;17.31;58.85;100167.47;5040131;28;20029;-77
2023/01/13 07:10:55;;;;;;;33.92;11.02;;;;;;;17.31;58.60;100169.19;5022657;28;20098;-80
2023/01/13 07:16:07;;;;;;;25.02;9.63;;;;;;;17.31;58.57;100171.78;5056922;28;20039;-79
2023/01/13 07:18:33;;;;;;;27.98;10.00;;;;;;;17.31;58.57;100174.38;5056949;28;20457;-81
2023/01/13 07:21:01;;;;;;;31.55;9.50;;;;;;;17.31;58.43;100177.00;5055385;28;20032;-80
2023/01/13 07:23:29;;;;;;;22.52;8.63;;;;;;;17.30;58.60;100178.75;5055341;28;20021;-80
2023/01/13 07:25:56;;;;;;;21.83;8.35;;;;;;;17.31;58.58;100184.78;5038871;28;20394;-81
2023/01/13 07:28:22;;;;;;;22.13;8.48;;;;;;;17.31;58.35;100175.28;5038578;28;20031;-79
2023/01/13 07:30:47;;;;;;;20.88;8.50;;;;;;;17.32;58.76;100191.72;5055379;28;20021;-78
2023/01/13 07:33:12;;;;;;;23.33;8.40;;;;;;;17.32;58.42;100189.97;5038509;28;20102;-78
2023/01/13 07:35:38;;;;;;;21.98;8.55;;;;;;;17.32;58.48;100196.94;5055001;28;20036;-78
2023/01/13 07:38:03;;;;;;;21.17;7.95;;;;;;;17.33;58.50;100198.63;5038765;28;20068;-78
2023/01/13 07:40:29;;;;;;;18.38;7.70;;;;;;;17.33;58.28;100191.69;5038391;28;20036;-78
2023/01/13 07:45:38;;;;;;;18.88;8.02;;;;;;;17.33;58.32;100196.03;5055659;28;20035;-77
2023/01/13 07:48:04;;;;;;;16.70;7.28;;;;;;;17.33;58.40;100202.06;5038378;28;20033;-77
2023/01/13 07:50:29;;;;;;;17.92;7.15;;;;;;;17.33;58.42;100203.84;5055253;28;20028;-77
2023/01/13 07:52:58;;;;;;;19.80;7.40;;;;;;;17.34;58.59;100206.41;5038794;28;20117;-76
2023/01/13 07:55:23;;;;;;;17.75;6.93;;;;;;;17.34;58.43;100206.41;5038270;28;20419;-77
2023/01/13 07:57:49;;;;;;;17.73;6.55;;;;;;;17.35;58.37;100207.25;5038070;28;20102;-77
2023/01/13 08:00:15;;;;;;;15.48;6.10;;;;;;;17.35;58.42;100210.72;5054476;28;20083;-77
2023/01/13 08:02:40;;;;;;;13.95;6.38;;;;;;;17.35;58.54;100213.31;5037998;28;20035;-79
2023/01/13 08:05:07;;;;;;;15.85;6.25;;;;;;;17.36;58.36;100214.19;5037923;28;20091;-78
2023/01/13 08:07:32;;;;;;;15.73;6.30;;;;;;;17.36;58.34;100219.41;5054501;28;20032;-79
2023/01/13 08:09:58;;;;;;;13.95;6.07;;;;;;;17.42;58.06;100214.94;5037284;28;20037;-83
2023/01/13 08:15:08;;;;;;;;;;;;;;;17.39;58.26;100211.53;5055548;28;20090;-83
2023/01/13 08:17:35;;;;;;;14.93;6.32;;;;;;;17.40;58.21;100218.47;5054539;28;20324;-79
2023/01/13 08:20:01;;;;;;;16.63;6.43;;;;;;;17.39;58.31;100232.31;5054451;28;20024;-81
2023/01/13 08:22:26;;;;;;;14.55;5.43;;;;;;;17.39;58.18;100232.31;5038293;28;20159;-83
2023/01/13 08:24:51;;;;;;;11.63;5.40;;;;;;;17.39;58.50;100238.38;5024448;28;20159;-81
2023/01/13 08:27:19;;;;;;;12.52;5.55;;;;;;;17.40;58.42;100244.47;5045597;28;20031;-82
2023/01/13 08:29:44;;;;;;;11.57;5.47;;;;;;;17.41;58.08;100248.75;5058929;28;20025;-83
2023/01/13 08:32:09;;;;;;;14.27;5.40;;;;;;;17.40;58.16;100247.91;5025103;28;20040;-80
2023/01/13 08:34:35;;;;;;;10.75;4.93;;;;;;;17.41;58.16;100251.38;5023651;28;20025;-82
2023/01/13 08:37:00;;;;;;;12.20;5.10;;;;;;;17.41;58.29;100260.03;5054335;28;20028;-82
2023/01/13 08:39:26;;;;;;;15.20;5.68;;;;;;;17.41;58.02;100267.81;5037727;28;20067;-82
2023/01/13 08:41:54;;;;;;;12.32;5.25;;;;;;;17.42;58.18;100266.06;5037469;28;20035;-82
2023/01/13 08:44:21;;;;;;;10.90;4.75;;;;;;;17.42;58.23;100253.94;5037919;28;20053;-82
2023/01/13 08:46:47;;;;;;;11.60;5.20;;;;;;;17.42;58.02;100259.16;5055528;28;20024;-83
2023/01/13 08:49:12;;;;;;;11.05;4.72;;;;;;;17.43;58.11;100276.47;5037446;28;20044;-83
2023/01/13 08:51:37;;;;;;;11.35;4.68;;;;;;;17.43;58.23;100266.06;5037294;28;20115;-82
2023/01/13 08:54:03;;;;;;;11.02;4.78;;;;;;;17.44;58.22;100277.31;5037291;28;20468;-83
2023/01/13 08:56:29;;;;;;;12.05;5.10;;;;;;;17.44;58.12;100278.19;5036956;28;20031;-83
2023/01/13 08:58:59;;;;;;;12.13;4.93;;;;;;;17.45;58.14;100279.91;5036889;28;20388;-80
2023/01/13 09:01:24;;;;;;;10.82;4.63;;;;;;;17.45;58.08;100281.66;5054780;28;20020;-81
2023/01/13 09:03:50;;;;;;;9.40;4.22;;;;;;;17.46;57.98;100288.56;5053452;28;20464;-83
2023/01/13 09:06:16;;;;;;;11.55;4.68;;;;;;;17.46;58.17;100292.03;5036874;28;20749;-83
2023/01/13 09:08:42;;;;;;;9.70;4.10;;;;;;;17.47;58.00;100288.53;5036891;28;20109;-83
2023/01/13 09:14:00;;;;;;;11.73;4.53;;;;;;;17.46;58.02;100294.63;5054650;28;20487;-82
2023/01/13 09:16:25;;;;;;;7.68;3.67;;;;;;;17.47;57.89;100291.13;5036700;28;20032;-81
2023/01/13 09:18:51;;;;;;;7.97;4.03;;;;;;;17.47;57.97;100296.34;5020259;28;20035;-83
2023/01/13 09:21:18;;;;;;;11.05;4.35;;;;;;;17.48;58.11;100302.38;5053166;28;20115;-83
2023/01/13 09:23:44;;;;;;;8.75;4.05;;;;;;;17.48;57.82;100302.38;5053295;28;20108;-82
2023/01/13 09:26:10;;;;;;;9.65;4.10;;;;;;;17.48;57.93;100303.28;5020096;28;20073;-81
2023/01/13 09:28:39;;;;;;;8.70;3.88;;;;;;;17.49;57.74;100309.31;5053339;28;20529;-81
2023/01/13 09:31:04;;;;;;;7.50;3.92;;;;;;;17.49;57.82;100322.31;5036604;28;20025;-82
2023/01/13 09:36:13;;;;;;;7.80;3.90;;;;;;;17.50;58.00;100321.44;5039900;28;20039;-82
2023/01/13 09:38:39;;;;;;;9.55;4.13;;;;;;;17.50;57.96;100318.84;5020066;28;20119;-82
2023/01/13 09:43:52;;;;;;;9.35;3.80;;;;;;;17.50;57.58;100324.03;5036220;28;20071;-83
2023/01/13 09:43:56;;;;;;;7.85;3.35;;;;;;;17.50;58.01;100329.22;5053069;28;20032;-81
2023/01/13 09:46:45;;;;;;;7.65;3.92;;;;;;;17.51;57.70;100337.88;5054003;28;20021;-83
2023/01/13 09:49:21;;;;;;;5.55;2.90;;;;;;;17.51;57.72;100337.88;5052891;28;20375;-81
2023/01/13 09:52:14;;;;;;;7.82;3.53;;;;;;;17.52;57.77;100350.88;5054161;28;20463;-82
2023/01/13 09:54:50;;;;;;;7.35;3.10;;;;;;;17.52;57.92;100345.69;5052590;28;20025;-83
2023/01/13 09:57:18;;;;;;;7.57;3.50;;;;;;;17.53;57.78;100357.81;5055546;28;20495;-80
2023/01/13 09:59:44;;;;;;;6.78;3.50;;;;;;;17.54;58.02;100356.06;5056989;28;20106;-80
2023/01/13 10:02:30;;;;;;;8.23;3.25;;;;;;;17.55;57.61;100355.16;5023221;28;20479;-79
2023/01/13 10:05:14;;;;;;;8.35;3.50;;;;;;;17.55;57.65;100360.38;5055899;28;20095;-82
2023/01/13 10:07:57;;;;;;;6.57;3.35;;;;;;;17.57;57.88;100351.69;5055524;28;20025;-81
2023/01/13 10:10:52;;;;;;;7.22;3.50;;;;;;;17.57;57.57;100350.78;5055981;28;20192;-81
2023/01/13 10:13:29;;;;;;;6.72;3.10;;;;;;;17.59;57.52;100362.03;5046372;28;20410;-80
2023/01/13 10:16:04;;;;;;;7.47;3.13;;;;;;;17.62;57.54;100362.84;5055880;28;20031;-92
2023/01/13 10:18:47;;;;;;;6.50;3.10;;;;;;;17.65;57.48;100374.94;5058903;28;20016;-91
2023/01/13 10:21:32;;;;;;;7.80;3.17;;;;;;;17.70;57.43;100373.13;5058723;28;20048;-90
2023/01/13 10:24:04;;;;;;;6.25;3.15;;;;;;;17.71;57.17;100387.88;5058629;28;20051;-90
2023/01/13 10:26:43;;;;;;;6.82;2.90;;;;;;;17.70;57.51;100396.53;5058886;28;20443;-91
2023/01/13 10:29:24;;;;;;;5.78;2.80;;;;;;;17.70;57.51;100383.53;5059062;28;20051;-90
2023/01/13 10:31:51;;;;;;;5.82;2.90;;;;;;;17.71;57.44;100392.22;5059148;28;20070;-90
2023/01/13 10:34:16;;;;;;;6.65;3.10;;;;;;;17.71;57.63;100397.41;5062110;28;20035;-90
2023/01/13 10:37:03;;;;;;;5.68;2.67;;;;;;;17.69;57.43;100400.03;5046113;28;20033;-88
2023/01/13 10:39:39;;;;;;;4.72;2.60;;;;;;;17.68;57.46;100399.19;5061896;28;20035;-90
2023/01/13 10:42:12;;;;;;;6.20;2.95;;;;;;;17.69;57.35;100405.25;5072814;28;20024;-92
2023/01/13 10:44:59;;;;;;;5.18;2.70;;;;;;;17.72;57.34;100415.59;5062112;28;20017;-93
2023/01/13 10:47:28;;;;;;;5.38;2.72;;;;;;;17.71;57.45;100418.25;5045239;28;20032;-89
2023/01/13 10:50:12;;;;;;;6.10;2.70;;;;;;;17.73;57.42;100416.47;5061822;28;20390;-91
2023/01/13 10:52:42;;;;;;;5.60;2.60;;;;;;;17.72;57.24;100431.19;5062216;28;20020;-89
2023/01/13 10:55:27;;;;;;;8.15;2.75;;;;;;;17.71;57.38;100421.69;5062050;28;20067;-89
2023/01/13 10:57:53;;;;;;;5.15;2.70;;;;;;;17.74;57.26;100425.97;5058454;28;20051;-91
2023/01/13 11:00:31;;;;;;;5.70;3.00;;;;;;;17.73;57.23;100438.16;5041704;28;20037;-89
2023/01/13 11:03:13;;;;;;;4.88;2.63;;;;;;;17.76;57.33;100432.88;5058573;28;20445;-90
2023/01/13 11:05:38;;;;;;;6.53;2.88;;;;;;;17.76;57.21;100435.47;5058697;28;20029;-89
2023/01/13 11:08:04;;;;;;;7.45;2.53;;;;;;;17.76;57.18;100450.25;5042109;28;20497;-91
2023/01/13 11:10:32;;;;;;;5.53;2.50;;;;;;;17.74;57.07;100452.84;5043298;28;20483;-90
2023/01/13 11:13:02;;;;;;;3.42;2.15;;;;;;;17.77;57.25;100446.75;5035673;28;20025;-90
2023/01/13 11:15:42;;;;;;;6.05;2.70;;;;;;;17.76;57.39;100452.84;5076152;28;20047;-91
2023/01/13 11:18:25;;;;;;;4.68;2.45;;;;;;;17.77;57.20;100457.16;5076138;28;20039;-89
2023/01/13 11:20:52;;;;;;;4.07;2.20;;;;;;;17.74;57.33;100454.59;5074080;28;20021;-90
2023/01/13 11:23:33;;;;;;;4.35;2.50;;;;;;;17.75;57.11;100469.34;5035641;28;20025;-90
2023/01/13 11:26:15;;;;;;;5.78;2.80;;;;;;;17.73;57.21;100471.97;5063461;28;20033;-90
2023/01/13 11:28:59;;;;;;;4.82;2.28;;;;;;;17.73;57.36;100464.16;5058810;28;20024;-89
2023/01/13 11:31:42;;;;;;;4.97;2.40;;;;;;;17.75;56.88;100474.56;5058280;28;20044;-89
2023/01/13 11:34:24;;;;;;;3.60;2.08;;;;;;;17.74;57.39;100473.69;5058437;28;20028;-93
2023/01/13 11:36:52;;;;;;;5.93;2.38;;;;;;;17.78;57.17;100479.69;5057493;28;20033;-82
2023/01/13 11:39:29;;;;;;;5.22;2.30;;;;;;;17.77;57.30;100484.06;5055581;28;20033;-81
2023/01/13 11:45:15;;;;;;;4.78;2.15;;;;;;;17.77;57.19;100481.44;5047515;28;20645;-79
2023/01/13 11:47:43;;;;;;;5.13;2.13;;;;;;;17.78;57.27;100487.50;5057232;28;20049;-86
2023/01/13 11:50:27;;;;;;;5.88;2.50;;;;;;;17.80;57.41;100494.41;5056714;28;20109;-88
2023/01/13 11:53:04;;;;;;;5.78;2.35;;;;;;;17.82;57.31;100492.69;5056774;28;20020;-88
2023/01/13 11:56:04;;;;;;;5.55;2.20;;;;;;;17.83;57.29;100501.34;5057676;28;20033;-88
2023/01/13 11:58:54;;;;;;;5.18;2.40;;;;;;;17.84;57.29;100510.88;5056214;28;20048;-86
2023/01/13 12:01:34;;;;;;;4.53;2.30;;;;;;;17.83;57.07;100523.03;5056748;28;20040;-88
2023/01/13 12:04:25;;;;;;;6.90;2.40;;;;;;;17.85;57.06;100521.25;5056329;28;20028;-88
2023/01/13 12:07:12;;;;;;;5.57;2.00;;;;;;;17.87;57.24;100510.81;5065115;28;20029;-88
2023/01/13 12:10:09;;;;;;;4.03;1.95;;;;;;;17.87;57.14;100524.69;5057330;28;20025;-88
2023/01/13 12:12:52;;;;;;;5.15;2.10;;;;;;;17.87;57.25;100522.09;5057372;28;20060;-88
2023/01/13 12:15:21;;;;;;;5.30;2.23;;;;;;;17.85;57.12;100525.59;5063434;28;20025;-88
2023/01/13 12:17:52;;;;;;;4.40;1.85;;;;;;;17.84;57.13;100540.38;5058139;28;20495;-89
2023/01/13 12:20:23;;;;;;;5.20;1.75;;;;;;;17.84;57.21;100550.78;5058647;28;20468;-91
2023/01/13 12:22:52;;;;;;;4.60;2.22;;;;;;;17.82;57.34;100539.53;5057705;28;20025;-89
2023/01/13 12:25:41;;;;;;;4.13;1.90;;;;;;;17.82;57.08;100557.75;5056369;28;20466;-90